sensor_id;sensor_type;location;lat;lon;timestamp;temperature;humidity
38568;DHT22;24338;48.280;10.970;2023-04-09T00:00:19;3.60;99.90
38568;DHT22;24338;48.280;10.970;2023-04-09T00:02:46;3.70;99.90
38568;DHT22;24338;48.280;10.970;2023-04-09T00:05:13;3.70;99.90
38568;DHT22;24338;48.280;10.970;2023-04-09T00:07:40;3.70;99.90
38568;DHT22;24338;48.280;10.970;2023-04-09T00:10:10;3.70;99.90
38568;DHT22;24338;48.280;10.970;2023-04-09T00:12:37;3.70;99.90
38568;DHT22;24338;48.280;10.970;2023-04-09T00:15:04;3.70;99.90
38568;DHT22;24338;48.280;10.970;2023-04-09T00:17:31;3.70;99.90
38568;DHT22;24338;48.280;10.970;2023-04-09T00:19:58;3.70;99.90
38568;DHT22;24338;48.280;10.970;2023-04-09T00:22:24;3.70;99.90
38568;DHT22;24338;48.280;10.970;2023-04-09T00:24:51;3.70;99.90
38568;DHT22;24338;48.280;10.970;2023-04-09T00:27:18;3.70;99.90
38568;DHT22;24338;48.280;10.970;2023-04-09T00:29:45;3.70;99.90
38568;DHT22;24338;48.280;10.970;2023-04-09T00:32:13;3.70;99.90
38568;DHT22;24338;48.280;10.970;2023-04-09T00:34:39;3.70;99.90
38568;DHT22;24338;48.280;10.970;2023-04-09T00:37:06;3.70;99.90
38568;DHT22;24338;48.280;10.970;2023-04-09T00:39:33;3.70;99.90
38568;DHT22;24338;48.280;10.970;2023-04-09T00:42:00;3.70;99.90
38568;DHT22;24338;48.280;10.970;2023-04-09T00:44:28;3.70;99.90
38568;DHT22;24338;48.280;10.970;2023-04-09T00:46:57;3.70;99.90
38568;DHT22;24338;48.280;10.970;2023-04-09T00:49:25;3.70;99.90
38568;DHT22;24338;48.280;10.970;2023-04-09T00:51:52;3.70;99.90
38568;DHT22;24338;48.280;10.970;2023-04-09T00:54:19;3.70;99.90
38568;DHT22;24338;48.280;10.970;2023-04-09T00:56:46;3.70;99.90
38568;DHT22;24338;48.280;10.970;2023-04-09T00:59:13;3.70;99.90
38568;DHT22;24338;48.280;10.970;2023-04-09T01:01:41;3.70;99.90
38568;DHT22;24338;48.280;10.970;2023-04-09T01:04:08;3.70;99.90
38568;DHT22;24338;48.280;10.970;2023-04-09T01:06:50;3.70;99.90
38568;DHT22;24338;48.280;10.970;2023-04-09T01:09:20;3.70;99.90
38568;DHT22;24338;48.280;10.970;2023-04-09T01:14:23;3.70;99.90
38568;DHT22;24338;48.280;10.970;2023-04-09T01:16:59;3.70;99.90
38568;DHT22;24338;48.280;10.970;2023-04-09T01:21:58;3.70;99.90
38568;DHT22;24338;48.280;10.970;2023-04-09T01:26:57;3.70;99.90
38568;DHT22;24338;48.280;10.970;2023-04-09T01:29:29;3.70;99.90
38568;DHT22;24338;48.280;10.970;2023-04-09T01:32:01;3.70;99.90
38568;DHT22;24338;48.280;10.970;2023-04-09T01:34:29;3.70;99.90
38568;DHT22;24338;48.280;10.970;2023-04-09T01:36:59;3.60;99.90
38568;DHT22;24338;48.280;10.970;2023-04-09T01:39:28;3.60;99.90
38568;DHT22;24338;48.280;10.970;2023-04-09T01:41:58;3.60;99.90
38568;DHT22;24338;48.280;10.970;2023-04-09T01:44:28;3.60;99.90
38568;DHT22;24338;48.280;10.970;2023-04-09T01:46:57;3.60;99.90
38568;DHT22;24338;48.280;10.970;2023-04-09T01:49:24;3.60;99.90
38568;DHT22;24338;48.280;10.970;2023-04-09T01:51:51;3.60;99.90
38568;DHT22;24338;48.280;10.970;2023-04-09T01:54:18;3.60;99.90
38568;DHT22;24338;48.280;10.970;2023-04-09T01:56:47;3.60;99.90
38568;DHT22;24338;48.280;10.970;2023-04-09T01:59:14;3.60;99.90
38568;DHT22;24338;48.280;10.970;2023-04-09T02:01:44;3.60;99.90
38568;DHT22;24338;48.280;10.970;2023-04-09T02:04:26;3.60;99.90
38568;DHT22;24338;48.280;10.970;2023-04-09T02:07:04;3.60;99.90
38568;DHT22;24338;48.280;10.970;2023-04-09T02:09:34;3.60;99.90
38568;DHT22;24338;48.280;10.970;2023-04-09T02:12:03;3.60;99.90
38568;DHT22;24338;48.280;10.970;2023-04-09T02:14:32;3.60;99.90
38568;DHT22;24338;48.280;10.970;2023-04-09T02:17:00;3.60;99.90
38568;DHT22;24338;48.280;10.970;2023-04-09T02:19:44;3.60;99.90
38568;DHT22;24338;48.280;10.970;2023-04-09T02:22:12;3.60;99.90
38568;DHT22;24338;48.280;10.970;2023-04-09T02:24:39;3.60;99.90
38568;DHT22;24338;48.280;10.970;2023-04-09T02:27:07;3.60;99.90
38568;DHT22;24338;48.280;10.970;2023-04-09T02:29:34;3.60;99.90
38568;DHT22;24338;48.280;10.970;2023-04-09T02:32:01;3.70;99.90
38568;DHT22;24338;48.280;10.970;2023-04-09T02:34:28;3.70;99.90
38568;DHT22;24338;48.280;10.970;2023-04-09T02:36:55;3.70;99.90
38568;DHT22;24338;48.280;10.970;2023-04-09T02:39:21;3.70;99.90
38568;DHT22;24338;48.280;10.970;2023-04-09T02:41:48;3.70;99.90
38568;DHT22;24338;48.280;10.970;2023-04-09T02:44:15;3.70;99.90
38568;DHT22;24338;48.280;10.970;2023-04-09T02:46:43;3.70;99.90
38568;DHT22;24338;48.280;10.970;2023-04-09T02:56:20;3.80;99.90
38568;DHT22;24338;48.280;10.970;2023-04-09T03:03:51;3.80;99.90
38568;DHT22;24338;48.280;10.970;2023-04-09T03:10:50;3.80;99.90
38568;DHT22;24338;48.280;10.970;2023-04-09T03:13:49;3.80;99.90
38568;DHT22;24338;48.280;10.970;2023-04-09T03:20:29;3.70;99.90
38568;DHT22;24338;48.280;10.970;2023-04-09T03:23:48;3.70;99.90
38568;DHT22;24338;48.280;10.970;2023-04-09T03:31:02;3.70;99.90
38568;DHT22;24338;48.280;10.970;2023-04-09T03:33:17;3.70;99.90
38568;DHT22;24338;48.280;10.970;2023-04-09T03:36:49;3.60;99.90
38568;DHT22;24338;48.280;10.970;2023-04-09T03:46:39;3.60;99.90
38568;DHT22;24338;48.280;10.970;2023-04-09T03:49:52;3.60;99.90
38568;DHT22;24338;48.280;10.970;2023-04-09T04:03:35;3.60;99.90
38568;DHT22;24338;48.280;10.970;2023-04-09T04:06:44;3.50;99.90
38568;DHT22;24338;48.280;10.970;2023-04-09T04:13:24;3.50;99.90
38568;DHT22;24338;48.280;10.970;2023-04-09T04:20:01;3.50;99.90
38568;DHT22;24338;48.280;10.970;2023-04-09T04:26:11;3.50;99.90
38568;DHT22;24338;48.280;10.970;2023-04-09T04:29:19;3.40;99.90
38568;DHT22;24338;48.280;10.970;2023-04-09T04:32:52;3.40;99.90
38568;DHT22;24338;48.280;10.970;2023-04-09T04:52:58;3.40;99.90
38568;DHT22;24338;48.280;10.970;2023-04-09T05:14:48;3.60;99.90
38568;DHT22;24338;48.280;10.970;2023-04-09T05:21:22;3.70;99.90
38568;DHT22;24338;48.280;10.970;2023-04-09T05:24:26;3.70;99.90
38568;DHT22;24338;48.280;10.970;2023-04-09T05:31:01;3.80;99.90
38568;DHT22;24338;48.280;10.970;2023-04-09T05:34:41;3.80;99.90
38568;DHT22;24338;48.280;10.970;2023-04-09T05:37:59;3.90;99.90
38568;DHT22;24338;48.280;10.970;2023-04-09T05:41:08;3.90;99.90
38568;DHT22;24338;48.280;10.970;2023-04-09T05:47:50;4.00;99.90
38568;DHT22;24338;48.280;10.970;2023-04-09T05:51:13;4.00;99.90
38568;DHT22;24338;48.280;10.970;2023-04-09T05:55:16;4.00;99.90
38568;DHT22;24338;48.280;10.970;2023-04-09T06:05:22;4.00;99.90
38568;DHT22;24338;48.280;10.970;2023-04-09T06:08:32;4.00;99.90
38568;DHT22;24338;48.280;10.970;2023-04-09T06:17:45;4.00;99.90
38568;DHT22;24338;48.280;10.970;2023-04-09T06:20:45;4.00;99.90
38568;DHT22;24338;48.280;10.970;2023-04-09T06:23:36;4.10;99.90
38568;DHT22;24338;48.280;10.970;2023-04-09T06:30:02;4.30;99.90
38568;DHT22;24338;48.280;10.970;2023-04-09T06:37:14;4.60;99.90
38568;DHT22;24338;48.280;10.970;2023-04-09T06:40:02;4.60;99.90
38568;DHT22;24338;48.280;10.970;2023-04-09T06:48:43;4.90;99.90
38568;DHT22;24338;48.280;10.970;2023-04-09T06:51:10;5.00;99.90
38568;DHT22;24338;48.280;10.970;2023-04-09T06:53:38;5.00;99.90
38568;DHT22;24338;48.280;10.970;2023-04-09T06:56:05;5.10;99.90
38568;DHT22;24338;48.280;10.970;2023-04-09T06:58:32;5.10;99.90
38568;DHT22;24338;48.280;10.970;2023-04-09T07:00:59;5.10;99.90
38568;DHT22;24338;48.280;10.970;2023-04-09T07:03:26;4.90;99.90
38568;DHT22;24338;48.280;10.970;2023-04-09T07:05:54;5.00;99.90
38568;DHT22;24338;48.280;10.970;2023-04-09T07:08:22;5.10;99.90
38568;DHT22;24338;48.280;10.970;2023-04-09T07:10:49;5.10;99.90
38568;DHT22;24338;48.280;10.970;2023-04-09T07:13:16;5.00;99.90
38568;DHT22;24338;48.280;10.970;2023-04-09T07:15:43;5.00;99.90
38568;DHT22;24338;48.280;10.970;2023-04-09T07:18:10;5.00;99.90
38568;DHT22;24338;48.280;10.970;2023-04-09T07:20:37;5.00;99.90
38568;DHT22;24338;48.280;10.970;2023-04-09T07:23:03;5.00;99.90
38568;DHT22;24338;48.280;10.970;2023-04-09T07:25:30;5.10;99.90
38568;DHT22;24338;48.280;10.970;2023-04-09T07:27:58;5.30;99.90
38568;DHT22;24338;48.280;10.970;2023-04-09T07:30:24;5.60;99.90
38568;DHT22;24338;48.280;10.970;2023-04-09T07:32:52;5.80;99.90
38568;DHT22;24338;48.280;10.970;2023-04-09T07:35:19;6.00;99.90
38568;DHT22;24338;48.280;10.970;2023-04-09T07:37:46;6.20;99.90
38568;DHT22;24338;48.280;10.970;2023-04-09T07:40:13;6.20;99.90
38568;DHT22;24338;48.280;10.970;2023-04-09T07:42:40;6.10;99.90
38568;DHT22;24338;48.280;10.970;2023-04-09T07:45:08;6.10;99.90
38568;DHT22;24338;48.280;10.970;2023-04-09T07:47:35;6.10;99.90
38568;DHT22;24338;48.280;10.970;2023-04-09T07:50:02;6.20;99.90
38568;DHT22;24338;48.280;10.970;2023-04-09T07:52:29;6.30;99.90
38568;DHT22;24338;48.280;10.970;2023-04-09T07:54:56;6.40;99.90
38568;DHT22;24338;48.280;10.970;2023-04-09T07:57:23;6.40;99.90
38568;DHT22;24338;48.280;10.970;2023-04-09T07:59:51;6.40;99.90
38568;DHT22;24338;48.280;10.970;2023-04-09T08:02:19;6.40;99.90
38568;DHT22;24338;48.280;10.970;2023-04-09T08:04:46;6.50;99.90
38568;DHT22;24338;48.280;10.970;2023-04-09T08:07:13;6.60;99.90
38568;DHT22;24338;48.280;10.970;2023-04-09T08:09:40;6.70;99.90
38568;DHT22;24338;48.280;10.970;2023-04-09T08:12:07;6.80;99.90
38568;DHT22;24338;48.280;10.970;2023-04-09T08:14:34;6.90;99.90
38568;DHT22;24338;48.280;10.970;2023-04-09T08:17:01;6.90;99.90
38568;DHT22;24338;48.280;10.970;2023-04-09T08:19:28;7.00;99.90
38568;DHT22;24338;48.280;10.970;2023-04-09T08:21:55;7.20;99.90
38568;DHT22;24338;48.280;10.970;2023-04-09T08:24:22;7.30;99.90
38568;DHT22;24338;48.280;10.970;2023-04-09T08:26:49;7.40;99.90
38568;DHT22;24338;48.280;10.970;2023-04-09T08:29:16;7.60;99.90
38568;DHT22;24338;48.280;10.970;2023-04-09T08:31:42;7.80;99.90
38568;DHT22;24338;48.280;10.970;2023-04-09T08:34:10;8.00;99.90
38568;DHT22;24338;48.280;10.970;2023-04-09T08:36:37;8.10;99.90
38568;DHT22;24338;48.280;10.970;2023-04-09T08:39:05;8.20;99.90
38568;DHT22;24338;48.280;10.970;2023-04-09T08:41:33;8.20;99.90
38568;DHT22;24338;48.280;10.970;2023-04-09T08:44:05;8.10;99.90
38568;DHT22;24338;48.280;10.970;2023-04-09T08:46:35;8.20;99.90
38568;DHT22;24338;48.280;10.970;2023-04-09T08:49:03;8.20;99.90
38568;DHT22;24338;48.280;10.970;2023-04-09T08:51:30;8.40;99.90
38568;DHT22;24338;48.280;10.970;2023-04-09T08:53:59;8.40;99.90
38568;DHT22;24338;48.280;10.970;2023-04-09T08:56:29;8.50;99.90
38568;DHT22;24338;48.280;10.970;2023-04-09T08:58:56;8.60;99.90
38568;DHT22;24338;48.280;10.970;2023-04-09T09:01:29;8.60;99.90
38568;DHT22;24338;48.280;10.970;2023-04-09T09:04:03;8.80;99.90
38568;DHT22;24338;48.280;10.970;2023-04-09T09:06:35;8.90;99.90
38568;DHT22;24338;48.280;10.970;2023-04-09T09:09:15;8.90;99.90
38568;DHT22;24338;48.280;10.970;2023-04-09T09:11:44;9.00;99.90
38568;DHT22;24338;48.280;10.970;2023-04-09T09:14:13;9.30;99.90
38568;DHT22;24338;48.280;10.970;2023-04-09T09:16:42;9.40;99.90
38568;DHT22;24338;48.280;10.970;2023-04-09T09:19:27;9.50;99.90
38568;DHT22;24338;48.280;10.970;2023-04-09T09:21:56;9.60;99.90
38568;DHT22;24338;48.280;10.970;2023-04-09T09:24:23;9.60;99.90
38568;DHT22;24338;48.280;10.970;2023-04-09T09:26:51;9.70;99.90
38568;DHT22;24338;48.280;10.970;2023-04-09T09:29:18;9.90;99.90
38568;DHT22;24338;48.280;10.970;2023-04-09T09:31:47;10.00;99.90
38568;DHT22;24338;48.280;10.970;2023-04-09T09:34:18;10.20;99.90
38568;DHT22;24338;48.280;10.970;2023-04-09T09:36:46;10.50;99.90
38568;DHT22;24338;48.280;10.970;2023-04-09T09:39:14;10.80;99.90
38568;DHT22;24338;48.280;10.970;2023-04-09T09:41:46;11.10;99.90
38568;DHT22;24338;48.280;10.970;2023-04-09T09:44:30;11.00;99.90
38568;DHT22;24338;48.280;10.970;2023-04-09T09:46:58;11.10;99.90
38568;DHT22;24338;48.280;10.970;2023-04-09T09:49:26;11.20;99.90
38568;DHT22;24338;48.280;10.970;2023-04-09T09:51:55;11.10;99.90
38568;DHT22;24338;48.280;10.970;2023-04-09T09:54:25;11.00;99.90
38568;DHT22;24338;48.280;10.970;2023-04-09T09:56:55;10.80;99.90
38568;DHT22;24338;48.280;10.970;2023-04-09T09:59:25;10.80;99.90
38568;DHT22;24338;48.280;10.970;2023-04-09T10:01:59;10.50;99.90
38568;DHT22;24338;48.280;10.970;2023-04-09T10:04:32;11.10;99.90
38568;DHT22;24338;48.280;10.970;2023-04-09T10:07:04;11.40;99.90
38568;DHT22;24338;48.280;10.970;2023-04-09T10:09:36;11.50;99.90
38568;DHT22;24338;48.280;10.970;2023-04-09T10:12:05;11.40;99.20
38568;DHT22;24338;48.280;10.970;2023-04-09T10:14:33;11.30;99.90
38568;DHT22;24338;48.280;10.970;2023-04-09T10:17:02;11.80;98.40
38568;DHT22;24338;48.280;10.970;2023-04-09T10:19:37;12.30;98.30
38568;DHT22;24338;48.280;10.970;2023-04-09T10:22:14;12.30;97.10
38568;DHT22;24338;48.280;10.970;2023-04-09T10:24:43;11.60;98.80
38568;DHT22;24338;48.280;10.970;2023-04-09T10:27:14;11.30;98.10
38568;DHT22;24338;48.280;10.970;2023-04-09T10:29:43;11.10;98.90
38568;DHT22;24338;48.280;10.970;2023-04-09T10:32:11;10.80;99.60
38568;DHT22;24338;48.280;10.970;2023-04-09T10:34:40;10.70;99.90
38568;DHT22;24338;48.280;10.970;2023-04-09T10:37:09;10.60;99.90
38568;DHT22;24338;48.280;10.970;2023-04-09T10:39:43;10.60;99.90
38568;DHT22;24338;48.280;10.970;2023-04-09T10:42:17;10.90;99.90
38568;DHT22;24338;48.280;10.970;2023-04-09T10:44:44;10.60;99.40
38568;DHT22;24338;48.280;10.970;2023-04-09T10:47:30;10.70;99.90
38568;DHT22;24338;48.280;10.970;2023-04-09T10:49:58;11.50;99.90
38568;DHT22;24338;48.280;10.970;2023-04-09T10:52:39;11.90;98.70
38568;DHT22;24338;48.280;10.970;2023-04-09T10:55:07;11.90;97.90
38568;DHT22;24338;48.280;10.970;2023-04-09T10:57:34;12.20;99.00
38568;DHT22;24338;48.280;10.970;2023-04-09T11:00:01;12.60;96.30
38568;DHT22;24338;48.280;10.970;2023-04-09T11:07:44;12.60;95.30
38568;DHT22;24338;48.280;10.970;2023-04-09T11:10:12;12.90;93.40
38568;DHT22;24338;48.280;10.970;2023-04-09T11:12:39;12.70;92.60
38568;DHT22;24338;48.280;10.970;2023-04-09T11:15:15;12.70;93.90
38568;DHT22;24338;48.280;10.970;2023-04-09T11:17:44;12.70;92.20
38568;DHT22;24338;48.280;10.970;2023-04-09T11:20:22;13.30;92.90
38568;DHT22;24338;48.280;10.970;2023-04-09T11:22:53;13.80;91.50
38568;DHT22;24338;48.280;10.970;2023-04-09T11:25:23;13.50;86.80
38568;DHT22;24338;48.280;10.970;2023-04-09T11:27:51;13.10;90.20
38568;DHT22;24338;48.280;10.970;2023-04-09T11:30:18;12.90;87.60
38568;DHT22;24338;48.280;10.970;2023-04-09T11:32:47;12.60;86.60
38568;DHT22;24338;48.280;10.970;2023-04-09T11:35:18;12.10;89.50
38568;DHT22;24338;48.280;10.970;2023-04-09T11:37:46;12.20;90.10
38568;DHT22;24338;48.280;10.970;2023-04-09T11:40:24;12.50;91.40
38568;DHT22;24338;48.280;10.970;2023-04-09T11:42:52;12.80;89.40
38568;DHT22;24338;48.280;10.970;2023-04-09T11:45:30;13.30;90.20
38568;DHT22;24338;48.280;10.970;2023-04-09T11:47:58;13.70;88.80
38568;DHT22;24338;48.280;10.970;2023-04-09T11:50:25;14.00;90.00
38568;DHT22;24338;48.280;10.970;2023-04-09T11:52:52;14.00;86.30
38568;DHT22;24338;48.280;10.970;2023-04-09T11:55:23;14.00;87.60
38568;DHT22;24338;48.280;10.970;2023-04-09T11:57:55;13.50;84.10
38568;DHT22;24338;48.280;10.970;2023-04-09T12:00:23;13.50;87.70
38568;DHT22;24338;48.280;10.970;2023-04-09T12:02:58;13.50;83.80
38568;DHT22;24338;48.280;10.970;2023-04-09T12:05:33;13.50;84.70
38568;DHT22;24338;48.280;10.970;2023-04-09T12:08:06;13.10;84.80
38568;DHT22;24338;48.280;10.970;2023-04-09T12:10:36;12.70;82.90
38568;DHT22;24338;48.280;10.970;2023-04-09T12:13:07;12.70;86.80
38568;DHT22;24338;48.280;10.970;2023-04-09T12:15:37;12.70;88.90
38568;DHT22;24338;48.280;10.970;2023-04-09T12:18:12;12.50;87.10
38568;DHT22;24338;48.280;10.970;2023-04-09T12:20:49;12.40;88.70
38568;DHT22;24338;48.280;10.970;2023-04-09T12:23:15;12.50;90.20
38568;DHT22;24338;48.280;10.970;2023-04-09T12:25:43;12.40;90.10
38568;DHT22;24338;48.280;10.970;2023-04-09T12:28:12;12.40;87.80
38568;DHT22;24338;48.280;10.970;2023-04-09T12:30:41;12.60;90.30
38568;DHT22;24338;48.280;10.970;2023-04-09T12:33:08;13.10;91.30
38568;DHT22;24338;48.280;10.970;2023-04-09T12:35:37;13.30;85.70
38568;DHT22;24338;48.280;10.970;2023-04-09T12:38:04;13.10;88.20
38568;DHT22;24338;48.280;10.970;2023-04-09T12:40:31;12.80;85.80
38568;DHT22;24338;48.280;10.970;2023-04-09T12:42:58;13.30;88.00
38568;DHT22;24338;48.280;10.970;2023-04-09T12:45:25;13.70;87.50
38568;DHT22;24338;48.280;10.970;2023-04-09T12:47:53;14.00;84.20
38568;DHT22;24338;48.280;10.970;2023-04-09T12:50:20;14.00;80.10
38568;DHT22;24338;48.280;10.970;2023-04-09T12:52:47;13.50;82.00
38568;DHT22;24338;48.280;10.970;2023-04-09T12:55:14;12.80;81.00
38568;DHT22;24338;48.280;10.970;2023-04-09T12:57:45;12.60;86.70
38568;DHT22;24338;48.280;10.970;2023-04-09T13:00:15;12.90;86.90
38568;DHT22;24338;48.280;10.970;2023-04-09T13:02:42;13.20;83.80
38568;DHT22;24338;48.280;10.970;2023-04-09T13:05:09;13.30;84.10
38568;DHT22;24338;48.280;10.970;2023-04-09T13:07:36;13.10;86.10
38568;DHT22;24338;48.280;10.970;2023-04-09T13:10:03;13.40;85.20
38568;DHT22;24338;48.280;10.970;2023-04-09T13:12:30;13.90;83.40
38568;DHT22;24338;48.280;10.970;2023-04-09T13:14:57;14.30;85.30
38568;DHT22;24338;48.280;10.970;2023-04-09T13:17:24;15.00;78.50
38568;DHT22;24338;48.280;10.970;2023-04-09T13:19:51;15.20;76.20
38568;DHT22;24338;48.280;10.970;2023-04-09T13:22:19;15.10;77.20
38568;DHT22;24338;48.280;10.970;2023-04-09T13:24:46;15.10;74.80
38568;DHT22;24338;48.280;10.970;2023-04-09T13:27:13;14.80;73.40
38568;DHT22;24338;48.280;10.970;2023-04-09T13:29:40;14.80;73.90
38568;DHT22;24338;48.280;10.970;2023-04-09T13:32:07;14.90;76.80
38568;DHT22;24338;48.280;10.970;2023-04-09T13:34:36;14.90;76.10
38568;DHT22;24338;48.280;10.970;2023-04-09T13:37:03;15.10;76.70
38568;DHT22;24338;48.280;10.970;2023-04-09T13:39:30;15.00;73.50
38568;DHT22;24338;48.280;10.970;2023-04-09T13:41:57;15.60;79.90
38568;DHT22;24338;48.280;10.970;2023-04-09T13:44:25;15.60;73.60
38568;DHT22;24338;48.280;10.970;2023-04-09T13:46:52;15.70;75.30
38568;DHT22;24338;48.280;10.970;2023-04-09T13:49:19;15.50;73.00
38568;DHT22;24338;48.280;10.970;2023-04-09T13:51:48;15.50;74.10
38568;DHT22;24338;48.280;10.970;2023-04-09T13:54:16;15.20;72.70
38568;DHT22;24338;48.280;10.970;2023-04-09T13:56:43;14.80;73.80
38568;DHT22;24338;48.280;10.970;2023-04-09T13:59:10;14.70;76.50
38568;DHT22;24338;48.280;10.970;2023-04-09T14:01:37;14.70;76.90
38568;DHT22;24338;48.280;10.970;2023-04-09T14:04:04;14.70;72.90
38568;DHT22;24338;48.280;10.970;2023-04-09T14:06:31;14.30;75.00
38568;DHT22;24338;48.280;10.970;2023-04-09T14:08:58;14.10;73.50
38568;DHT22;24338;48.280;10.970;2023-04-09T14:11:25;13.60;76.20
38568;DHT22;24338;48.280;10.970;2023-04-09T14:13:52;13.50;77.80
38568;DHT22;24338;48.280;10.970;2023-04-09T14:16:19;13.50;79.20
38568;DHT22;24338;48.280;10.970;2023-04-09T14:18:46;13.70;77.30
38568;DHT22;24338;48.280;10.970;2023-04-09T14:21:13;13.40;79.80
38568;DHT22;24338;48.280;10.970;2023-04-09T14:23:40;13.20;77.80
38568;DHT22;24338;48.280;10.970;2023-04-09T14:26:07;13.00;79.90
38568;DHT22;24338;48.280;10.970;2023-04-09T14:28:34;13.10;79.20
38568;DHT22;24338;48.280;10.970;2023-04-09T14:31:00;12.90;82.30
38568;DHT22;24338;48.280;10.970;2023-04-09T14:33:27;12.70;82.90
38568;DHT22;24338;48.280;10.970;2023-04-09T14:35:54;12.40;81.80
38568;DHT22;24338;48.280;10.970;2023-04-09T14:38:22;12.30;82.10
38568;DHT22;24338;48.280;10.970;2023-04-09T14:40:52;12.10;81.80
38568;DHT22;24338;48.280;10.970;2023-04-09T14:43:19;12.00;84.50
38568;DHT22;24338;48.280;10.970;2023-04-09T14:45:45;12.00;83.50
38568;DHT22;24338;48.280;10.970;2023-04-09T14:48:13;12.10;85.60
38568;DHT22;24338;48.280;10.970;2023-04-09T14:50:39;12.10;84.50
38568;DHT22;24338;48.280;10.970;2023-04-09T14:53:06;12.20;84.10
38568;DHT22;24338;48.280;10.970;2023-04-09T14:55:33;12.40;82.50
38568;DHT22;24338;48.280;10.970;2023-04-09T14:58:00;12.80;85.90
38568;DHT22;24338;48.280;10.970;2023-04-09T15:00:29;13.40;84.90
38568;DHT22;24338;48.280;10.970;2023-04-09T15:02:57;13.60;82.60
38568;DHT22;24338;48.280;10.970;2023-04-09T15:05:25;13.00;82.80
38568;DHT22;24338;48.280;10.970;2023-04-09T15:07:53;12.70;84.30
38568;DHT22;24338;48.280;10.970;2023-04-09T15:10:20;12.50;83.50
38568;DHT22;24338;48.280;10.970;2023-04-09T15:12:47;12.30;84.60
38568;DHT22;24338;48.280;10.970;2023-04-09T15:15:14;12.30;87.60
38568;DHT22;24338;48.280;10.970;2023-04-09T15:17:41;12.30;85.40
38568;DHT22;24338;48.280;10.970;2023-04-09T15:20:08;12.40;82.80
38568;DHT22;24338;48.280;10.970;2023-04-09T15:22:35;12.30;84.90
38568;DHT22;24338;48.280;10.970;2023-04-09T15:25:02;12.10;85.40
38568;DHT22;24338;48.280;10.970;2023-04-09T15:27:29;12.00;84.60
38568;DHT22;24338;48.280;10.970;2023-04-09T15:29:56;12.10;87.70
38568;DHT22;24338;48.280;10.970;2023-04-09T15:32:22;12.50;86.40
38568;DHT22;24338;48.280;10.970;2023-04-09T15:34:49;12.70;85.20
38568;DHT22;24338;48.280;10.970;2023-04-09T15:37:16;12.80;86.50
38568;DHT22;24338;48.280;10.970;2023-04-09T15:39:43;12.90;86.70
38568;DHT22;24338;48.280;10.970;2023-04-09T15:42:10;12.70;85.20
38568;DHT22;24338;48.280;10.970;2023-04-09T15:44:40;12.40;86.20
38568;DHT22;24338;48.280;10.970;2023-04-09T15:47:10;12.20;88.60
38568;DHT22;24338;48.280;10.970;2023-04-09T15:49:47;11.90;88.30
38568;DHT22;24338;48.280;10.970;2023-04-09T15:52:30;11.70;90.10
38568;DHT22;24338;48.280;10.970;2023-04-09T15:55:13;11.50;90.00
38568;DHT22;24338;48.280;10.970;2023-04-09T15:57:54;11.40;91.20
38568;DHT22;24338;48.280;10.970;2023-04-09T16:00:21;11.30;90.80
38568;DHT22;24338;48.280;10.970;2023-04-09T16:02:49;11.30;90.50
38568;DHT22;24338;48.280;10.970;2023-04-09T16:05:16;11.40;91.00
38568;DHT22;24338;48.280;10.970;2023-04-09T16:07:43;11.50;90.00
38568;DHT22;24338;48.280;10.970;2023-04-09T16:10:10;11.70;89.80
38568;DHT22;24338;48.280;10.970;2023-04-09T16:12:37;11.80;86.60
38568;DHT22;24338;48.280;10.970;2023-04-09T16:15:05;11.80;88.80
38568;DHT22;24338;48.280;10.970;2023-04-09T16:17:32;11.90;90.00
38568;DHT22;24338;48.280;10.970;2023-04-09T16:20:07;12.00;89.30
38568;DHT22;24338;48.280;10.970;2023-04-09T16:22:34;12.00;89.00
38568;DHT22;24338;48.280;10.970;2023-04-09T16:25:01;11.90;85.60
38568;DHT22;24338;48.280;10.970;2023-04-09T16:27:28;11.70;87.80
38568;DHT22;24338;48.280;10.970;2023-04-09T16:29:54;11.70;89.60
38568;DHT22;24338;48.280;10.970;2023-04-09T16:32:21;11.50;90.00
38568;DHT22;24338;48.280;10.970;2023-04-09T16:34:48;11.40;88.90
38568;DHT22;24338;48.280;10.970;2023-04-09T16:37:15;11.20;89.00
38568;DHT22;24338;48.280;10.970;2023-04-09T16:39:42;11.20;90.70
38568;DHT22;24338;48.280;10.970;2023-04-09T16:42:09;11.10;90.10
38568;DHT22;24338;48.280;10.970;2023-04-09T16:44:37;11.00;90.20
38568;DHT22;24338;48.280;10.970;2023-04-09T16:47:04;10.90;89.00
38568;DHT22;24338;48.280;10.970;2023-04-09T16:49:32;10.90;91.40
38568;DHT22;24338;48.280;10.970;2023-04-09T16:51:58;10.90;90.60
38568;DHT22;24338;48.280;10.970;2023-04-09T16:54:25;10.70;91.30
38568;DHT22;24338;48.280;10.970;2023-04-09T16:56:56;10.60;91.10
38568;DHT22;24338;48.280;10.970;2023-04-09T16:59:24;10.50;90.80
38568;DHT22;24338;48.280;10.970;2023-04-09T17:01:51;10.50;91.30
38568;DHT22;24338;48.280;10.970;2023-04-09T17:04:18;10.50;90.80
38568;DHT22;24338;48.280;10.970;2023-04-09T17:06:44;10.50;91.50
38568;DHT22;24338;48.280;10.970;2023-04-09T17:09:12;10.50;91.40
38568;DHT22;24338;48.280;10.970;2023-04-09T17:11:39;10.40;90.90
38568;DHT22;24338;48.280;10.970;2023-04-09T17:14:06;10.30;91.80
38568;DHT22;24338;48.280;10.970;2023-04-09T17:16:33;10.20;91.20
38568;DHT22;24338;48.280;10.970;2023-04-09T17:26:26;9.90;94.00
38568;DHT22;24338;48.280;10.970;2023-04-09T17:28:53;9.70;94.10
38568;DHT22;24338;48.280;10.970;2023-04-09T17:31:20;9.70;95.50
38568;DHT22;24338;48.280;10.970;2023-04-09T17:33:50;9.60;95.30
38568;DHT22;24338;48.280;10.970;2023-04-09T17:36:18;9.50;96.70
38568;DHT22;24338;48.280;10.970;2023-04-09T17:38:46;9.40;98.00
38568;DHT22;24338;48.280;10.970;2023-04-09T17:41:13;9.30;98.80
38568;DHT22;24338;48.280;10.970;2023-04-09T17:43:40;9.20;99.90
38568;DHT22;24338;48.280;10.970;2023-04-09T17:46:07;9.10;99.90
38568;DHT22;24338;48.280;10.970;2023-04-09T17:48:37;8.90;99.90
38568;DHT22;24338;48.280;10.970;2023-04-09T17:51:05;8.90;99.90
38568;DHT22;24338;48.280;10.970;2023-04-09T17:53:32;8.70;99.90
38568;DHT22;24338;48.280;10.970;2023-04-09T17:55:59;8.70;99.90
38568;DHT22;24338;48.280;10.970;2023-04-09T17:58:28;8.60;99.90
38568;DHT22;24338;48.280;10.970;2023-04-09T18:00:55;8.50;99.90
38568;DHT22;24338;48.280;10.970;2023-04-09T18:03:22;8.40;99.90
38568;DHT22;24338;48.280;10.970;2023-04-09T18:05:49;8.30;99.90
38568;DHT22;24338;48.280;10.970;2023-04-09T18:08:16;8.20;99.90
38568;DHT22;24338;48.280;10.970;2023-04-09T18:10:43;8.10;99.90
38568;DHT22;24338;48.280;10.970;2023-04-09T18:13:10;8.00;99.90
38568;DHT22;24338;48.280;10.970;2023-04-09T18:15:37;7.90;99.90
38568;DHT22;24338;48.280;10.970;2023-04-09T18:18:07;7.90;99.90